createdAt,value
2018-05-23T00:01:22.951Z,5.30
2018-05-23T00:03:51.222Z,7.70
2018-05-23T00:06:19.621Z,5.43
2018-05-23T00:08:48.034Z,6.50
2018-05-23T00:11:16.304Z,5.00
2018-05-23T00:13:44.570Z,4.77
2018-05-23T00:16:12.858Z,4.73
2018-05-23T00:18:41.185Z,4.97
2018-05-23T00:21:09.396Z,5.20
2018-05-23T00:23:37.718Z,5.30
2018-05-23T00:26:05.997Z,5.57
2018-05-23T00:28:34.457Z,5.43
2018-05-23T00:31:02.766Z,4.90
2018-05-23T00:33:31.020Z,6.23
2018-05-23T00:35:59.287Z,5.60
2018-05-23T00:38:27.557Z,5.50
2018-05-23T00:40:55.826Z,4.87
2018-05-23T00:43:24.110Z,6.17
2018-05-23T00:45:52.429Z,5.00
2018-05-23T00:48:21.459Z,4.73
2018-05-23T00:50:49.717Z,5.43
2018-05-23T00:53:17.983Z,8.33
2018-05-23T00:55:46.323Z,7.87
2018-05-23T00:58:14.611Z,4.90
2018-05-23T01:00:43.075Z,4.60
2018-05-23T01:03:11.345Z,4.73
2018-05-23T01:05:39.888Z,4.83
2018-05-23T01:08:08.153Z,5.50
2018-05-23T01:10:36.586Z,4.80
2018-05-23T01:13:04.862Z,6.87
2018-05-23T01:15:33.273Z,4.60
2018-05-23T01:18:01.549Z,5.60
2018-05-23T01:20:29.827Z,4.60
2018-05-23T01:22:58.143Z,6.43
2018-05-23T01:25:26.411Z,5.13
2018-05-23T01:27:54.678Z,6.23
2018-05-23T01:30:22.953Z,5.87
2018-05-23T01:32:52.054Z,4.90
2018-05-23T01:35:20.251Z,4.23
2018-05-23T01:37:48.522Z,4.80
2018-05-23T01:40:16.826Z,4.97
2018-05-23T01:42:45.099Z,6.47
2018-05-23T01:45:13.358Z,4.70
2018-05-23T01:47:41.670Z,4.60
2018-05-23T01:50:09.934Z,5.00
2018-05-23T01:52:38.210Z,4.53
2018-05-23T01:55:06.461Z,5.70
2018-05-23T01:57:34.868Z,5.87
2018-05-23T02:00:03.272Z,4.30
2018-05-23T02:02:31.632Z,4.90
2018-05-23T02:04:59.959Z,5.53
2018-05-23T02:07:28.399Z,5.60
2018-05-23T02:09:56.661Z,5.10
2018-05-23T02:12:24.926Z,5.17
2018-05-23T02:14:53.194Z,5.20
2018-05-23T02:17:21.456Z,4.63
2018-05-23T02:19:49.722Z,4.33
2018-05-23T02:22:18.049Z,4.57
2018-05-23T02:24:46.314Z,6.87
2018-05-23T02:27:14.590Z,4.90
2018-05-23T02:29:42.881Z,5.57
2018-05-23T02:32:11.161Z,4.60
2018-05-23T02:34:39.418Z,7.63
2018-05-23T02:37:07.734Z,6.40
2018-05-23T02:39:36.003Z,6.17
2018-05-23T02:42:04.272Z,6.53
2018-05-23T02:44:32.525Z,4.70
2018-05-23T02:47:01.583Z,5.07
2018-05-23T02:49:29.917Z,5.33
2018-05-23T02:51:58.195Z,5.27
2018-05-23T02:54:26.470Z,5.10
2018-05-23T02:56:54.859Z,4.30
2018-05-23T02:59:23.014Z,5.00
2018-05-23T03:01:51.495Z,4.60
2018-05-23T03:04:19.870Z,4.53
2018-05-23T03:06:48.150Z,4.73
2018-05-23T03:09:16.653Z,4.30
2018-05-23T03:11:44.971Z,4.83
2018-05-23T03:14:13.237Z,5.27
2018-05-23T03:16:41.519Z,4.43
2018-05-23T03:19:09.847Z,5.97
2018-05-23T03:21:38.122Z,4.73
2018-05-23T03:24:06.390Z,5.10
2018-05-23T03:26:34.715Z,5.00
2018-05-23T03:29:02.962Z,4.60
2018-05-23T03:31:31.228Z,5.63
2018-05-23T03:33:59.628Z,5.67
2018-05-23T03:36:27.875Z,5.00
2018-05-23T03:38:56.130Z,5.70
2018-05-23T03:41:24.640Z,5.13
2018-05-23T03:43:53.020Z,5.83
2018-05-23T03:46:21.286Z,5.30
2018-05-23T03:48:49.549Z,7.97
2018-05-23T03:51:17.853Z,5.13
2018-05-23T03:53:46.113Z,4.50
2018-05-23T03:56:14.393Z,5.20
2018-05-23T03:58:42.691Z,5.00
2018-05-23T04:01:22.741Z,10.17
2018-05-23T04:04:02.784Z,6.13
2018-05-23T04:06:40.812Z,7.10
2018-05-23T04:09:09.080Z,6.43
2018-05-23T04:11:37.459Z,5.70
2018-05-23T04:14:05.724Z,5.87
2018-05-23T04:16:34.213Z,7.07
2018-05-23T04:19:02.583Z,6.67
2018-05-23T04:21:30.842Z,5.67
2018-05-23T04:23:59.252Z,5.90
2018-05-23T04:26:27.514Z,5.90
2018-05-23T04:28:55.798Z,5.57
2018-05-23T04:31:24.075Z,4.90
2018-05-23T04:33:52.359Z,6.60
2018-05-23T04:36:20.625Z,5.30
2018-05-23T04:38:48.897Z,5.90
2018-05-23T04:41:17.160Z,6.50
2018-05-23T04:43:45.485Z,5.17
2018-05-23T04:46:13.875Z,5.10
2018-05-23T04:48:42.227Z,6.63
2018-05-23T04:51:10.482Z,22.30
2018-05-23T04:53:38.758Z,119.17
2018-05-23T04:56:07.048Z,252.43
2018-05-23T04:58:35.334Z,306.10
2018-05-23T05:01:03.813Z,210.20
2018-05-23T05:03:32.111Z,201.73
2018-05-23T05:06:00.606Z,172.60
2018-05-23T05:08:28.955Z,188.03
2018-05-23T05:10:57.357Z,186.63
2018-05-23T05:13:25.637Z,172.13
2018-05-23T05:15:53.970Z,159.73
2018-05-23T05:18:22.466Z,152.43
2018-05-23T05:20:50.752Z,134.47
2018-05-23T05:23:19.210Z,141.77
2018-05-23T05:25:47.497Z,128.33
2018-05-23T05:28:16.002Z,135.73
2018-05-23T05:30:44.279Z,129.97
2018-05-23T05:33:13.346Z,125.77
2018-05-23T05:35:41.789Z,114.00
2018-05-23T05:38:10.084Z,111.20
2018-05-23T05:40:38.371Z,100.90
2018-05-23T05:43:06.912Z,101.87
2018-05-23T05:45:35.164Z,97.73
2018-05-23T05:48:03.625Z,76.90
2018-05-23T05:50:31.898Z,65.80
2018-05-23T05:53:00.391Z,65.03
2018-05-23T05:55:28.668Z,63.20
2018-05-23T05:57:57.138Z,57.80
2018-05-23T06:00:25.469Z,60.80
2018-05-23T06:02:53.821Z,63.97
2018-05-23T06:05:22.103Z,58.03
2018-05-23T06:07:50.378Z,57.57
2018-05-23T06:10:18.680Z,60.37
2018-05-23T06:12:47.365Z,36.33
2018-05-23T06:15:15.827Z,54.50
2018-05-23T06:17:44.097Z,45.03
2018-05-23T06:20:12.566Z,46.33
2018-05-23T06:22:40.829Z,33.03
2018-05-23T06:25:09.123Z,35.03
2018-05-23T06:27:37.412Z,42.20
2018-05-23T06:30:05.784Z,32.87
2018-05-23T06:32:34.062Z,28.67
2018-05-23T06:35:02.526Z,31.13
2018-05-23T06:37:30.914Z,32.87
2018-05-23T06:39:59.209Z,32.33
2018-05-23T06:42:28.252Z,29.77
2018-05-23T06:44:56.685Z,30.47
2018-05-23T06:47:25.257Z,23.23
2018-05-23T06:49:53.702Z,25.30
2018-05-23T06:52:22.044Z,22.30
2018-05-23T06:54:50.338Z,23.70
2018-05-23T06:57:18.610Z,19.87
2018-05-23T06:59:46.935Z,18.13
2018-05-23T07:02:15.325Z,19.20
2018-05-23T07:04:43.627Z,17.17
2018-05-23T07:07:12.701Z,17.87
2018-05-23T07:09:40.971Z,14.33
2018-05-23T07:12:09.457Z,15.13
2018-05-23T07:14:37.823Z,18.37
2018-05-23T07:17:06.096Z,18.50
2018-05-23T07:19:34.585Z,15.40
2018-05-23T07:22:02.864Z,13.50
2018-05-23T07:24:31.327Z,17.67
2018-05-23T07:26:59.618Z,14.43
2018-05-23T07:29:27.896Z,12.60
2018-05-23T07:31:56.183Z,13.73
2018-05-23T07:34:24.480Z,13.47
2018-05-23T07:36:53.515Z,15.50
2018-05-23T07:39:21.921Z,11.63
2018-05-23T07:41:50.206Z,12.07
2018-05-23T07:44:18.672Z,12.77
2018-05-23T07:46:46.954Z,12.10
2018-05-23T07:49:15.223Z,10.23
2018-05-23T07:51:43.509Z,11.70
2018-05-23T07:54:11.772Z,8.47
2018-05-23T07:56:40.078Z,9.60
2018-05-23T07:59:08.311Z,10.70
2018-05-23T08:01:36.601Z,8.23
2018-05-23T08:04:04.867Z,11.13
2018-05-23T08:06:33.145Z,8.83
2018-05-23T08:09:01.543Z,9.40
2018-05-23T08:11:29.835Z,10.60
2018-05-23T08:13:58.310Z,9.27
2018-05-23T08:16:26.590Z,7.33
2018-05-23T08:18:54.841Z,9.13
2018-05-23T08:21:23.166Z,8.90
2018-05-23T08:23:51.435Z,7.83
2018-05-23T08:26:19.892Z,9.67
2018-05-23T08:28:48.160Z,12.33
2018-05-23T08:31:16.432Z,10.27
2018-05-23T08:33:44.726Z,7.37
2018-05-23T08:36:13.034Z,6.43
2018-05-23T08:38:42.081Z,7.37
2018-05-23T08:41:10.360Z,7.90
2018-05-23T08:43:38.876Z,7.13
2018-05-23T08:46:07.199Z,7.63
2018-05-23T08:48:35.628Z,7.17
2018-05-23T08:51:03.887Z,8.57
2018-05-23T08:53:32.159Z,8.60
2018-05-23T08:56:00.437Z,5.67
2018-05-23T08:58:28.727Z,10.70
2018-05-23T09:00:57.010Z,6.37
2018-05-23T09:03:25.283Z,6.37
2018-05-23T09:05:53.651Z,7.93
2018-05-23T09:08:21.915Z,9.43
2018-05-23T09:10:50.214Z,11.47
2018-05-23T09:13:18.513Z,6.63
2018-05-23T09:15:46.765Z,8.40
2018-05-23T09:18:15.178Z,8.57
2018-05-23T09:20:43.308Z,6.53
2018-05-23T09:23:11.682Z,12.07
2018-05-23T09:25:40.072Z,8.87
2018-05-23T09:28:08.357Z,10.27
2018-05-23T09:30:36.815Z,6.83
2018-05-23T09:33:05.115Z,10.87
2018-05-23T09:35:33.363Z,7.43
2018-05-23T09:38:01.637Z,6.33
2018-05-23T09:40:30.798Z,6.43
2018-05-23T09:42:59.066Z,8.20
2018-05-23T09:45:27.343Z,8.50
2018-05-23T09:47:55.815Z,6.70
2018-05-23T09:50:24.082Z,6.53
2018-05-23T09:52:52.549Z,6.10
2018-05-23T09:55:20.830Z,7.03
2018-05-23T09:57:49.252Z,8.27
2018-05-23T10:00:17.689Z,9.07
2018-05-23T10:02:45.983Z,7.03
2018-05-23T10:05:14.237Z,10.87
2018-05-23T10:07:42.507Z,8.53
2018-05-23T10:10:10.772Z,9.03
2018-05-23T10:12:39.286Z,12.93
2018-05-23T10:15:07.555Z,6.67
2018-05-23T10:17:36.023Z,6.90
2018-05-23T10:20:04.403Z,7.43
2018-05-23T10:22:32.675Z,8.23
2018-05-23T10:25:00.974Z,13.30
2018-05-23T10:27:29.354Z,9.23
2018-05-23T10:29:57.604Z,11.47
2018-05-23T10:32:25.877Z,6.60
2018-05-23T10:34:54.143Z,8.20
2018-05-23T10:37:22.429Z,7.07
2018-05-23T10:39:50.706Z,8.73
2018-05-23T10:42:18.966Z,8.97
2018-05-23T10:44:47.299Z,13.03
2018-05-23T10:47:15.555Z,9.23
2018-05-23T10:49:43.820Z,6.60
2018-05-23T10:52:12.095Z,8.10
2018-05-23T10:54:40.403Z,6.30
2018-05-23T10:57:09.064Z,5.43
2018-05-23T10:59:37.296Z,10.17
2018-05-23T11:02:05.657Z,6.10
2018-05-23T11:04:33.989Z,9.70
2018-05-23T11:07:02.262Z,12.13
2018-05-23T11:09:30.779Z,7.87
2018-05-23T11:11:59.093Z,6.70
2018-05-23T11:14:27.359Z,7.73
2018-05-23T11:16:55.631Z,8.17
2018-05-23T11:19:23.969Z,7.50
2018-05-23T11:21:52.243Z,6.33
2018-05-23T11:24:20.517Z,7.13
2018-05-23T11:26:48.790Z,6.57
2018-05-23T11:29:17.162Z,8.03
2018-05-23T11:31:45.465Z,11.20
2018-05-23T11:34:13.730Z,8.47
2018-05-23T11:36:42.007Z,6.70
2018-05-23T11:39:10.300Z,6.27
2018-05-23T11:41:38.719Z,9.50
2018-05-23T11:44:06.993Z,6.80
2018-05-23T11:46:35.367Z,7.93
2018-05-23T11:49:03.616Z,6.50
2018-05-23T11:51:31.880Z,6.80
2018-05-23T11:54:00.346Z,6.37
2018-05-23T11:56:28.616Z,7.07
2018-05-23T11:58:57.807Z,10.47
2018-05-23T12:01:26.091Z,7.73
2018-05-23T12:03:54.378Z,11.87
2018-05-23T12:06:22.868Z,7.27
2018-05-23T12:08:51.168Z,11.27
2018-05-23T12:11:19.438Z,11.87
2018-05-23T12:13:47.713Z,12.70
2018-05-23T12:16:15.986Z,9.30
2018-05-23T12:18:44.259Z,9.30
2018-05-23T12:21:12.530Z,10.33
2018-05-23T12:23:41.776Z,8.13
2018-05-23T12:26:10.515Z,7.63
2018-05-23T12:28:38.839Z,14.43
2018-05-23T12:31:07.130Z,13.80
2018-05-23T12:33:35.559Z,15.00
2018-05-23T12:36:04.045Z,14.30
2018-05-23T12:38:32.425Z,11.07
2018-05-23T12:41:00.821Z,11.00
2018-05-23T12:43:29.010Z,11.17
2018-05-23T12:45:57.286Z,10.30
2018-05-23T12:48:25.557Z,13.70
2018-05-23T12:50:53.837Z,10.40
2018-05-23T12:53:22.131Z,11.30
2018-05-23T12:55:50.460Z,11.07
2018-05-23T12:58:18.781Z,14.10
2018-05-23T13:00:47.199Z,11.93
2018-05-23T13:03:15.471Z,13.73
2018-05-23T13:05:43.816Z,14.17
2018-05-23T13:08:12.055Z,14.83
2018-05-23T13:10:40.325Z,13.20
2018-05-23T13:13:08.807Z,11.20
2018-05-23T13:15:37.081Z,16.70
2018-05-23T13:18:05.360Z,18.97
2018-05-23T13:20:33.635Z,22.23
2018-05-23T13:23:01.929Z,17.03
2018-05-23T13:25:30.401Z,15.93
2018-05-23T13:27:58.685Z,12.77
2018-05-23T13:30:27.156Z,13.27
2018-05-23T13:32:55.417Z,14.17
2018-05-23T13:35:23.691Z,11.70
2018-05-23T13:37:51.963Z,8.90
2018-05-23T13:40:20.235Z,11.20
2018-05-23T13:42:48.722Z,19.00
2018-05-23T13:45:16.998Z,9.47
2018-05-23T13:47:45.292Z,10.30
2018-05-23T13:50:13.574Z,7.40
2018-05-23T13:52:41.845Z,11.10
2018-05-23T13:55:10.151Z,9.60
2018-05-23T13:57:38.384Z,14.00
2018-05-23T14:00:06.780Z,11.43
2018-05-23T14:02:35.053Z,13.33
2018-05-23T14:05:03.318Z,10.93
2018-05-23T14:07:31.619Z,9.63
2018-05-23T14:09:59.903Z,12.27
2018-05-23T14:12:28.329Z,11.93
2018-05-23T14:14:56.744Z,8.17
2018-05-23T14:17:25.006Z,8.17
2018-05-23T14:19:53.271Z,8.83
2018-05-23T14:22:21.566Z,10.63
2018-05-23T14:24:49.814Z,12.77
2018-05-23T14:27:18.380Z,6.90
2018-05-23T14:29:46.727Z,10.87
2018-05-23T14:32:14.978Z,9.10
2018-05-23T14:34:43.478Z,8.90
2018-05-23T14:37:11.814Z,7.53
2018-05-23T14:39:40.094Z,8.57
2018-05-23T14:42:08.601Z,6.37
2018-05-23T14:44:36.879Z,11.93
2018-05-23T14:47:05.143Z,12.40
2018-05-23T14:49:33.429Z,13.13
2018-05-23T14:52:01.737Z,19.13
2018-05-23T14:54:30.192Z,10.10
2018-05-23T14:56:58.490Z,10.73
2018-05-23T14:59:26.963Z,9.27
2018-05-23T15:01:55.230Z,8.17
2018-05-23T15:04:23.558Z,9.07
2018-05-23T15:06:51.855Z,9.33
2018-05-23T15:09:20.126Z,9.10
2018-05-23T15:11:48.406Z,10.80
2018-05-23T15:14:16.727Z,11.87
2018-05-23T15:16:44.959Z,7.70
2018-05-23T15:19:13.382Z,12.97
2018-05-23T15:21:41.668Z,70.80
2018-05-23T15:24:10.142Z,15.03
2018-05-23T15:26:38.421Z,10.53
2018-05-23T15:29:06.732Z,9.47
2018-05-23T15:31:35.103Z,11.97
2018-05-23T15:34:03.326Z,8.50
2018-05-23T15:36:31.629Z,7.93
2018-05-23T15:39:00.087Z,7.57
2018-05-23T15:41:28.380Z,10.13
2018-05-23T15:43:56.626Z,23.13
2018-05-23T15:46:24.930Z,13.40
2018-05-23T15:48:53.262Z,6.37
2018-05-23T15:51:21.539Z,5.03
2018-05-23T15:53:49.948Z,5.43
2018-05-23T15:56:18.236Z,10.37
2018-05-23T15:58:46.520Z,6.70
2018-05-23T16:01:14.780Z,6.20
2018-05-23T16:03:43.282Z,8.80
2018-05-23T16:06:11.563Z,5.97
2018-05-23T16:08:39.903Z,4.67
2018-05-23T16:11:08.186Z,7.23
2018-05-23T16:16:13.410Z,7.90
2018-05-23T16:18:42.067Z,10.97
2018-05-23T16:21:11.110Z,10.77
2018-05-23T16:23:39.507Z,15.40
2018-05-23T16:26:07.795Z,20.60
2018-05-23T16:28:36.113Z,22.03
2018-05-23T16:31:04.500Z,10.03
2018-05-23T16:33:32.941Z,15.93
2018-05-23T16:36:01.224Z,15.70
2018-05-23T16:38:29.519Z,13.47
2018-05-23T16:40:57.802Z,18.93
2018-05-23T16:43:27.002Z,14.37
2018-05-23T16:45:55.520Z,10.93
2018-05-23T16:48:23.892Z,15.53
2018-05-23T16:50:52.173Z,17.97
2018-05-23T16:53:20.643Z,30.97
2018-05-23T16:55:48.937Z,41.30
2018-05-23T16:58:17.299Z,229.43
2018-05-23T17:00:45.809Z,283.73
2018-05-23T17:03:14.425Z,252.50
2018-05-23T17:05:42.888Z,243.17
2018-05-23T17:08:12.113Z,176.40
2018-05-23T17:10:41.408Z,232.67
2018-05-23T17:13:09.791Z,356.27
2018-05-23T17:15:38.495Z,311.37
2018-05-23T17:18:07.165Z,221.97
2018-05-23T17:20:36.239Z,342.93
2018-05-23T17:23:04.622Z,338.17
2018-05-23T17:25:33.847Z,252.77
2018-05-23T17:28:02.319Z,190.00
2018-05-23T17:30:30.609Z,157.20
2018-05-23T17:32:58.895Z,143.00
2018-05-23T17:35:27.206Z,106.40
2018-05-23T17:37:55.503Z,110.97
2018-05-23T17:40:23.814Z,85.93
2018-05-23T17:42:52.295Z,122.47
2018-05-23T17:45:20.609Z,119.77
2018-05-23T17:47:49.022Z,109.33
2018-05-23T17:50:17.423Z,127.60
2018-05-23T17:52:45.687Z,115.97
2018-05-23T17:55:14.741Z,116.17
2018-05-23T17:57:43.070Z,95.27
2018-05-23T18:00:12.135Z,135.67
2018-05-23T18:02:40.535Z,119.13
2018-05-23T18:05:08.819Z,150.00
2018-05-23T18:07:37.296Z,113.83
2018-05-23T18:10:05.575Z,122.17
2018-05-23T18:12:34.040Z,109.07
2018-05-23T18:15:02.351Z,109.30
2018-05-23T18:17:30.793Z,108.47
2018-05-23T18:19:59.131Z,98.07
2018-05-23T18:22:27.541Z,111.53
2018-05-23T18:24:56.053Z,110.30
2018-05-23T18:27:24.601Z,106.30
2018-05-23T18:29:53.003Z,98.97
2018-05-23T18:32:21.291Z,107.80
2018-05-23T18:34:50.342Z,96.10
2018-05-23T18:37:18.666Z,83.63
2018-05-23T18:39:47.080Z,79.67
2018-05-23T18:42:15.367Z,82.47
2018-05-23T18:44:43.689Z,79.90
2018-05-23T18:47:11.933Z,79.80
2018-05-23T18:49:40.254Z,78.00
2018-05-23T18:52:08.735Z,84.90
2018-05-23T18:54:37.048Z,82.70
2018-05-23T18:57:05.389Z,76.87
2018-05-23T18:59:33.626Z,79.33
2018-05-23T19:02:02.480Z,71.20
2018-05-23T19:04:30.838Z,74.27
2018-05-23T19:06:59.884Z,66.93
2018-05-23T19:09:28.274Z,69.53
2018-05-23T19:11:56.573Z,62.30
2018-05-23T19:14:25.003Z,66.73
2018-05-23T19:16:53.298Z,64.60
2018-05-23T19:19:21.569Z,72.90
2018-05-23T19:21:49.868Z,67.57
2018-05-23T19:24:18.299Z,66.10
2018-05-23T19:26:46.588Z,51.43
2018-05-23T19:29:15.127Z,51.20
2018-05-23T19:31:43.393Z,47.80
2018-05-23T19:34:11.801Z,39.60
2018-05-23T19:36:39.994Z,44.60
2018-05-23T19:39:11.460Z,47.87
2018-05-23T19:41:43.186Z,50.17
2018-05-23T19:46:46.646Z,41.67
2018-05-23T19:49:14.936Z,51.60
2018-05-23T19:51:47.304Z,51.80
2018-05-23T19:54:15.594Z,47.27
2018-05-23T19:56:44.028Z,45.47
2018-05-23T19:59:12.298Z,42.07
2018-05-23T20:01:40.587Z,49.57
2018-05-23T20:04:09.021Z,42.20
2018-05-23T20:06:37.291Z,45.23
2018-05-23T20:09:06.342Z,43.07
2018-05-23T20:11:34.774Z,46.53
2018-05-23T20:14:03.208Z,40.70
2018-05-23T20:16:31.367Z,40.27
2018-05-23T20:19:00.031Z,35.27
2018-05-23T20:21:29.164Z,34.77
2018-05-23T20:23:57.483Z,33.87
2018-05-23T20:26:25.817Z,30.20
2018-05-23T20:28:55.095Z,31.43
2018-05-23T20:31:24.313Z,32.23
2018-05-23T20:33:52.592Z,28.93
2018-05-23T20:36:20.907Z,33.37
2018-05-23T20:38:49.321Z,30.80
2018-05-23T20:41:17.696Z,31.87
2018-05-23T20:43:45.971Z,27.60
2018-05-23T20:46:15.033Z,27.07
2018-05-23T20:48:43.466Z,26.90
2018-05-23T20:51:11.746Z,28.27
2018-05-23T20:53:40.187Z,30.13
2018-05-23T20:56:08.578Z,25.60
2018-05-23T20:58:37.056Z,23.27
2018-05-23T21:01:05.521Z,23.50
2018-05-23T21:03:34.267Z,22.53
2018-05-23T21:06:03.278Z,22.17
2018-05-23T21:08:31.668Z,24.37
2018-05-23T21:11:00.039Z,22.23
2018-05-23T21:13:28.861Z,21.67
2018-05-23T21:15:57.135Z,21.10
2018-05-23T21:18:25.479Z,29.77
2018-05-23T21:20:53.813Z,23.27
2018-05-23T21:23:22.991Z,21.73
2018-05-23T21:25:51.502Z,22.07
2018-05-23T21:28:20.479Z,21.63
2018-05-23T21:30:48.944Z,17.87
2018-05-23T21:33:17.244Z,21.17
2018-05-23T21:35:45.707Z,19.73
2018-05-23T21:38:14.931Z,14.80
2018-05-23T21:40:43.681Z,20.57
2018-05-23T21:43:12.342Z,15.63
2018-05-23T21:45:40.759Z,18.17
2018-05-23T21:48:09.067Z,14.67
2018-05-23T21:50:37.506Z,14.77
2018-05-23T21:53:05.811Z,18.20
2018-05-23T21:55:34.310Z,14.77
2018-05-23T21:58:02.644Z,15.97
2018-05-23T22:00:31.871Z,16.07
2018-05-23T22:03:00.909Z,14.77
2018-05-23T22:05:29.328Z,14.43
2018-05-23T22:07:57.594Z,14.50
2018-05-23T22:10:26.003Z,12.47
2018-05-23T22:12:55.047Z,15.10
2018-05-23T22:15:23.438Z,13.43
2018-05-23T22:17:51.710Z,16.47
2018-05-23T22:20:20.081Z,11.87
2018-05-23T22:22:48.579Z,15.30
2018-05-23T22:25:17.218Z,13.37
2018-05-23T22:27:45.503Z,14.90
2018-05-23T22:30:13.869Z,13.50
2018-05-23T22:32:42.133Z,13.30
2018-05-23T22:35:10.767Z,11.67
2018-05-23T22:37:39.098Z,13.33
2018-05-23T22:40:08.179Z,11.60
2018-05-23T22:42:36.538Z,13.87
2018-05-23T22:45:04.865Z,15.80
2018-05-23T22:47:33.294Z,12.33
2018-05-23T22:50:01.653Z,12.00
2018-05-23T22:52:30.022Z,13.40
2018-05-23T22:54:58.408Z,12.67
2018-05-23T22:57:26.732Z,11.43
2018-05-23T22:59:55.194Z,11.90
2018-05-23T23:02:23.517Z,11.23
2018-05-23T23:04:51.944Z,11.30
2018-05-23T23:07:20.219Z,11.60
2018-05-23T23:09:48.493Z,11.30
2018-05-23T23:12:17.018Z,11.60
2018-05-23T23:14:45.750Z,11.43
2018-05-23T23:17:14.386Z,12.53
2018-05-23T23:19:43.140Z,11.63
2018-05-23T23:22:20.128Z,11.57
2018-05-23T23:24:48.529Z,13.00
2018-05-23T23:27:16.796Z,11.10
2018-05-23T23:29:45.286Z,10.67
2018-05-23T23:32:13.569Z,11.67
2018-05-23T23:34:42.006Z,10.90
2018-05-23T23:37:10.297Z,11.07
2018-05-23T23:39:39.066Z,11.03
2018-05-23T23:42:08.119Z,11.67
2018-05-23T23:44:36.537Z,14.07
2018-05-23T23:47:04.800Z,11.17
2018-05-23T23:49:33.280Z,11.03
2018-05-23T23:52:01.516Z,12.67
2018-05-23T23:54:29.783Z,12.40
2018-05-23T23:56:58.059Z,11.77
2018-05-23T23:59:27.669Z,10.97
